createdAt,value
2022-11-30T00:03:26.905Z,71.77
2022-11-30T00:08:29.517Z,71.59
2022-11-30T00:13:31.646Z,71.75
2022-11-30T00:18:33.878Z,71.80
2022-11-30T00:23:38.657Z,71.62
2022-11-30T00:28:41.003Z,71.54
2022-11-30T00:33:43.226Z,71.61
2022-11-30T00:38:46.235Z,71.46
2022-11-30T00:43:48.644Z,71.89
2022-11-30T00:48:50.789Z,71.63
2022-11-30T00:53:52.899Z,71.83
2022-11-30T00:58:55.023Z,71.74
2022-11-30T01:03:57.431Z,71.38
2022-11-30T01:09:03.245Z,71.91
2022-11-30T01:14:05.738Z,72.00
2022-11-30T01:19:07.858Z,72.11
2022-11-30T01:24:10.866Z,71.95
2022-11-30T01:29:13.002Z,71.77
2022-11-30T01:34:15.260Z,71.79
2022-11-30T01:39:17.564Z,71.95
2022-11-30T01:44:26.639Z,72.15
2022-11-30T01:49:42.458Z,71.88
2022-11-30T01:54:46.402Z,71.95
2022-11-30T01:59:50.599Z,71.85
2022-11-30T02:04:52.908Z,71.92
2022-11-30T02:09:55.126Z,71.93
2022-11-30T02:14:59.366Z,71.95
2022-11-30T02:20:01.580Z,71.78
2022-11-30T02:25:47.634Z,71.91
2022-11-30T02:30:50.977Z,71.73
2022-11-30T02:35:55.445Z,71.49
2022-11-30T02:40:57.858Z,71.87
2022-11-30T02:46:08.402Z,71.85
2022-11-30T02:51:13.614Z,72.00
2022-11-30T02:56:15.829Z,71.98
2022-11-30T03:01:17.982Z,71.65
2022-11-30T03:06:20.165Z,71.83
2022-11-30T03:11:22.369Z,72.01
2022-11-30T03:16:24.480Z,71.84
2022-11-30T03:21:26.679Z,71.85
2022-11-30T03:26:28.811Z,71.93
2022-11-30T03:31:31.034Z,71.85
2022-11-30T03:36:33.157Z,71.77
2022-11-30T03:41:35.464Z,71.79
2022-11-30T03:46:37.659Z,71.87
2022-11-30T03:51:39.925Z,71.65
2022-11-30T03:56:42.112Z,71.60
2022-11-30T04:01:44.323Z,71.87
2022-11-30T04:06:46.662Z,71.67
2022-11-30T04:11:48.856Z,71.79
2022-11-30T04:16:50.989Z,71.87
2022-11-30T04:21:53.122Z,71.84
2022-11-30T04:26:55.293Z,71.92
2022-11-30T04:31:57.390Z,71.76
2022-11-30T04:37:00.624Z,71.53
2022-11-30T04:42:03.010Z,71.79
2022-11-30T04:47:05.226Z,71.76
2022-11-30T04:52:07.496Z,71.71
2022-11-30T04:57:09.619Z,71.69
2022-11-30T05:02:11.828Z,71.78
2022-11-30T05:07:14.013Z,71.59
2022-11-30T05:12:16.194Z,71.56
2022-11-30T05:17:18.319Z,71.91
2022-11-30T05:22:20.417Z,71.72
2022-11-30T05:27:22.940Z,71.69
2022-11-30T05:32:25.140Z,71.78
2022-11-30T05:37:27.355Z,71.83
2022-11-30T05:42:29.478Z,72.00
2022-11-30T05:47:31.682Z,71.86
2022-11-30T05:52:33.857Z,71.67
2022-11-30T05:57:40.443Z,71.79
2022-11-30T06:02:42.622Z,71.74
2022-11-30T06:07:44.947Z,71.64
2022-11-30T06:12:48.787Z,71.86
2022-11-30T06:17:50.955Z,72.03
2022-11-30T06:22:53.114Z,71.77
2022-11-30T06:27:55.333Z,72.23
2022-11-30T06:32:57.476Z,71.99
2022-11-30T06:38:00.820Z,71.93
2022-11-30T06:43:03.005Z,72.12
2022-11-30T06:48:05.302Z,72.38
2022-11-30T06:53:07.496Z,72.34
2022-11-30T06:58:10.099Z,72.40
2022-11-30T07:03:13.004Z,72.59
2022-11-30T07:08:16.992Z,72.59
2022-11-30T07:13:19.594Z,73.22
2022-11-30T07:18:24.713Z,73.73
2022-11-30T07:23:54.067Z,73.70
2022-11-30T07:28:58.982Z,73.79
2022-11-30T07:34:07.048Z,73.41
2022-11-30T07:39:09.292Z,71.82
2022-11-30T07:44:12.983Z,68.96
2022-11-30T07:49:15.252Z,67.13
2022-11-30T07:54:17.498Z,67.48
2022-11-30T07:59:19.640Z,68.17
2022-11-30T08:04:22.015Z,69.06
2022-11-30T08:09:24.217Z,69.55
2022-11-30T08:14:26.340Z,70.49
2022-11-30T08:19:28.473Z,70.76
2022-11-30T08:24:30.645Z,71.27
2022-11-30T08:29:32.854Z,71.72
2022-11-30T08:34:34.989Z,71.85
2022-11-30T08:39:39.237Z,72.06
2022-11-30T08:44:41.440Z,72.69
2022-11-30T08:49:43.777Z,73.03
2022-11-30T08:54:47.893Z,73.12
2022-11-30T08:59:50.530Z,73.57
2022-11-30T09:04:53.776Z,74.01
2022-11-30T09:09:56.127Z,74.34
2022-11-30T09:15:00.241Z,74.60
2022-11-30T09:20:03.212Z,74.56
2022-11-30T09:25:06.595Z,74.71
2022-11-30T09:30:09.393Z,75.19
2022-11-30T09:35:13.114Z,75.29
2022-11-30T09:40:26.157Z,75.97
2022-11-30T09:45:32.058Z,75.49
2022-11-30T09:50:39.012Z,75.95
2022-11-30T09:55:43.002Z,75.99
2022-11-30T10:00:45.188Z,76.00
2022-11-30T10:06:00.106Z,76.22
2022-11-30T10:11:26.451Z,76.38
2022-11-30T10:16:34.782Z,76.71
2022-11-30T10:22:34.313Z,76.96
2022-11-30T10:27:52.111Z,76.69
2022-11-30T10:32:56.272Z,76.62
2022-11-30T10:38:00.856Z,76.75
2022-11-30T10:43:09.834Z,76.79
2022-11-30T10:48:15.322Z,76.86
2022-11-30T10:53:17.603Z,76.56
2022-11-30T10:58:29.814Z,76.86
2022-11-30T11:03:32.201Z,76.71
2022-11-30T11:08:35.602Z,76.56
2022-11-30T11:13:40.096Z,76.60
2022-11-30T11:18:53.671Z,76.63
2022-11-30T11:23:57.387Z,76.15
2022-11-30T11:29:02.752Z,76.35
2022-11-30T11:34:06.255Z,76.21
2022-11-30T11:39:28.691Z,76.50
2022-11-30T11:44:32.023Z,76.51
2022-11-30T11:49:39.210Z,76.37
2022-11-30T11:54:58.588Z,76.36
2022-11-30T12:00:16.860Z,76.13
2022-11-30T12:05:31.765Z,76.10
2022-11-30T12:10:53.168Z,76.09
2022-11-30T12:16:20.665Z,75.91
2022-11-30T12:21:35.395Z,75.82
2022-11-30T12:26:53.994Z,75.99
2022-11-30T12:32:14.304Z,75.73
2022-11-30T12:37:47.641Z,76.00
2022-11-30T12:42:57.545Z,75.60
2022-11-30T12:48:12.129Z,75.73
2022-11-30T12:53:20.450Z,75.76
2022-11-30T12:58:42.724Z,75.55
2022-11-30T13:04:05.369Z,75.44
2022-11-30T13:09:19.152Z,75.55
2022-11-30T13:14:25.324Z,75.55
2022-11-30T13:19:36.508Z,75.53
2022-11-30T13:24:53.032Z,75.54
2022-11-30T13:30:17.589Z,75.31
2022-11-30T13:35:29.186Z,75.41
2022-11-30T13:40:31.924Z,75.49
2022-11-30T13:45:35.249Z,75.05
2022-11-30T13:50:42.646Z,74.97
2022-11-30T13:55:57.211Z,75.11
2022-11-30T14:06:55.752Z,75.00
2022-11-30T14:11:57.951Z,75.25
2022-11-30T14:17:00.491Z,75.32
2022-11-30T14:22:04.040Z,75.45
2022-11-30T14:27:06.433Z,75.15
2022-11-30T14:32:19.020Z,74.93
2022-11-30T14:37:27.674Z,75.32
2022-11-30T14:42:31.819Z,75.18
2022-11-30T14:47:35.872Z,74.86
2022-11-30T14:52:56.355Z,74.94
2022-11-30T14:58:20.526Z,74.87
2022-11-30T15:03:40.284Z,74.74
2022-11-30T15:08:50.180Z,74.58
2022-11-30T15:14:07.691Z,74.60
2022-11-30T15:19:24.926Z,74.38
2022-11-30T15:24:28.516Z,74.40
2022-11-30T15:29:43.699Z,74.42
2022-11-30T15:34:54.946Z,74.46
2022-11-30T15:40:00.586Z,74.42
2022-11-30T15:45:18.029Z,74.23
2022-11-30T15:50:26.750Z,74.44
2022-11-30T15:55:46.711Z,74.23
2022-11-30T16:01:04.099Z,73.97
2022-11-30T16:06:06.799Z,74.08
2022-11-30T16:11:11.125Z,74.06
2022-11-30T16:16:15.657Z,73.90
2022-11-30T16:21:19.923Z,74.17
2022-11-30T16:26:49.387Z,74.17
2022-11-30T16:31:44.386Z,74.18
2022-11-30T16:36:46.574Z,73.78
2022-11-30T16:41:48.716Z,74.03
2022-11-30T16:46:51.658Z,73.98
2022-11-30T16:51:53.940Z,73.93
2022-11-30T16:56:56.087Z,74.02
2022-11-30T17:01:58.463Z,73.65
2022-11-30T17:07:02.953Z,73.72
2022-11-30T17:12:06.809Z,73.25
2022-11-30T17:17:09.037Z,73.55
2022-11-30T17:22:11.275Z,73.53
2022-11-30T17:27:13.583Z,73.35
2022-11-30T17:32:15.792Z,73.45
2022-11-30T17:37:18.003Z,73.58
2022-11-30T17:42:20.338Z,73.31
2022-11-30T17:47:22.733Z,73.21
2022-11-30T17:52:25.128Z,73.27
2022-11-30T17:57:27.463Z,73.11
2022-11-30T18:02:29.671Z,73.07
2022-11-30T18:07:32.164Z,72.96
2022-11-30T18:12:34.406Z,73.00
2022-11-30T18:17:36.634Z,73.07
2022-11-30T18:22:38.753Z,72.85
2022-11-30T18:27:41.202Z,73.03
2022-11-30T18:32:43.337Z,72.73
2022-11-30T18:37:45.583Z,72.74
2022-11-30T18:42:47.855Z,72.81
2022-11-30T18:47:50.022Z,72.66
2022-11-30T18:52:52.320Z,72.50
2022-11-30T18:57:54.581Z,72.63
2022-11-30T19:02:56.821Z,72.65
2022-11-30T19:08:04.759Z,72.45
2022-11-30T19:13:07.318Z,72.57
2022-11-30T19:18:10.371Z,72.26
2022-11-30T19:23:12.951Z,72.34
2022-11-30T19:28:15.146Z,72.23
2022-11-30T19:33:17.376Z,72.09
2022-11-30T19:38:19.912Z,72.09
2022-11-30T19:43:22.081Z,72.04
2022-11-30T19:48:24.358Z,72.10
2022-11-30T19:53:28.358Z,72.05
2022-11-30T19:58:31.745Z,71.90
2022-11-30T20:03:35.357Z,72.03
2022-11-30T20:08:38.673Z,72.09
2022-11-30T20:13:41.196Z,72.09
2022-11-30T20:18:46.584Z,72.12
2022-11-30T20:23:49.396Z,71.87
2022-11-30T20:28:52.387Z,71.88
2022-11-30T20:33:54.649Z,71.67
2022-11-30T20:38:58.779Z,71.81
2022-11-30T20:44:01.053Z,71.89
2022-11-30T20:49:05.097Z,71.92
2022-11-30T20:54:07.505Z,71.77
2022-11-30T20:59:17.302Z,71.62
2022-11-30T21:04:20.366Z,71.51
2022-11-30T21:09:22.697Z,71.78
2022-11-30T21:14:24.902Z,71.02
2022-11-30T21:19:27.388Z,71.48
2022-11-30T21:24:29.512Z,71.40
2022-11-30T21:29:31.672Z,71.40
2022-11-30T21:34:34.062Z,71.39
2022-11-30T21:39:36.596Z,71.24
2022-11-30T21:44:41.294Z,71.36
2022-11-30T21:49:43.768Z,71.27
2022-11-30T21:54:46.000Z,71.35
2022-11-30T21:59:48.777Z,71.21
2022-11-30T22:04:51.105Z,71.24
2022-11-30T22:09:53.323Z,71.16
2022-11-30T22:14:55.471Z,71.05
2022-11-30T22:19:57.599Z,71.11
2022-11-30T22:24:59.763Z,71.29
2022-11-30T22:30:01.994Z,70.94
2022-11-30T22:35:05.534Z,71.22
2022-11-30T22:40:08.471Z,71.13
2022-11-30T22:45:10.782Z,70.67
2022-11-30T22:50:13.191Z,70.79
2022-11-30T22:55:15.536Z,70.64
2022-11-30T23:00:18.048Z,70.88
2022-11-30T23:05:20.220Z,70.70
2022-11-30T23:10:23.140Z,71.00
2022-11-30T23:15:25.246Z,70.76
2022-11-30T23:20:27.402Z,70.62
2022-11-30T23:25:29.756Z,70.69
2022-11-30T23:30:32.412Z,70.65
2022-11-30T23:35:34.580Z,70.86
2022-11-30T23:40:37.183Z,70.90
2022-11-30T23:45:39.311Z,70.69
2022-11-30T23:50:41.636Z,70.86
2022-11-30T23:55:43.833Z,70.83
